createdAt,value
2023-12-03T00:00:08.538Z,998.37
2023-12-03T00:05:40.435Z,998.42
2023-12-03T00:11:12.434Z,998.38
2023-12-03T00:16:43.881Z,998.32
2023-12-03T00:22:15.073Z,998.26
2023-12-03T00:27:46.666Z,998.23
2023-12-03T00:33:18.639Z,998.28
2023-12-03T00:38:50.084Z,998.28
2023-12-03T00:44:21.679Z,998.26
2023-12-03T00:49:53.157Z,998.33
2023-12-03T00:55:24.831Z,998.34
2023-12-03T01:00:56.961Z,998.38
2023-12-03T01:06:28.667Z,998.38
2023-12-03T01:12:00.589Z,998.48
2023-12-03T01:17:31.867Z,998.55
2023-12-03T01:23:03.443Z,998.55
2023-12-03T01:28:34.847Z,998.58
2023-12-03T01:34:06.706Z,998.58
2023-12-03T01:39:38.546Z,998.58
2023-12-03T01:45:10.551Z,998.67
2023-12-03T01:50:42.357Z,998.73
2023-12-03T01:56:13.974Z,998.73
2023-12-03T02:01:45.349Z,998.77
2023-12-03T02:07:17.153Z,998.81
2023-12-03T02:12:48.832Z,998.9
2023-12-03T02:18:20.703Z,998.93
2023-12-03T02:23:52.180Z,998.87
2023-12-03T02:29:23.644Z,998.95
2023-12-03T02:34:55.141Z,998.96
2023-12-03T02:40:26.583Z,998.91
2023-12-03T02:45:58.065Z,998.86
2023-12-03T02:51:29.549Z,998.87
2023-12-03T02:57:01.223Z,998.88
2023-12-03T03:02:32.389Z,998.96
2023-12-03T03:08:03.806Z,998.89
2023-12-03T03:13:35.353Z,998.87
2023-12-03T03:19:06.875Z,998.9
2023-12-03T03:24:38.788Z,998.96
2023-12-03T03:30:14.467Z,998.99
2023-12-03T03:35:46.562Z,998.99
2023-12-03T03:41:18.123Z,998.98
2023-12-03T03:46:49.316Z,998.99
2023-12-03T03:52:20.807Z,999.04
2023-12-03T03:57:52.044Z,999
2023-12-03T04:03:23.413Z,999.01
2023-12-03T04:08:54.849Z,999.06
2023-12-03T04:14:26.148Z,999.05
2023-12-03T04:19:57.626Z,999.11
2023-12-03T04:25:28.867Z,999.21
2023-12-03T04:31:00.452Z,999.27
2023-12-03T04:36:32.141Z,999.18
2023-12-03T04:42:04.481Z,999.13
2023-12-03T04:47:36.241Z,999.18
2023-12-03T04:53:07.985Z,999.15
2023-12-03T04:58:39.534Z,999.18
2023-12-03T05:04:10.916Z,999.22
2023-12-03T05:09:42.847Z,999.23
2023-12-03T05:15:14.491Z,999.29
2023-12-03T05:20:45.630Z,999.29
2023-12-03T05:26:16.722Z,999.39
2023-12-03T05:31:48.148Z,999.42
2023-12-03T05:37:19.748Z,999.46
2023-12-03T05:42:51.358Z,999.52
2023-12-03T05:48:24.179Z,999.5
2023-12-03T05:53:55.909Z,999.57
2023-12-03T05:59:27.510Z,999.65
2023-12-03T06:04:59.466Z,999.66
2023-12-03T06:10:30.896Z,999.7
2023-12-03T06:16:02.238Z,999.78
2023-12-03T06:21:33.584Z,999.8
2023-12-03T06:27:05.194Z,999.82
2023-12-03T06:32:36.776Z,999.79
2023-12-03T06:38:08.258Z,999.82
2023-12-03T06:43:39.826Z,999.86
2023-12-03T06:49:15.815Z,999.93
2023-12-03T06:54:48.072Z,999.94
2023-12-03T07:00:20.090Z,1000.02
2023-12-03T07:05:51.843Z,1000.15
2023-12-03T07:11:23.727Z,1000.24
2023-12-03T07:16:55.393Z,1000.26
2023-12-03T07:22:26.851Z,1000.3
2023-12-03T07:27:58.890Z,1000.36
2023-12-03T07:33:30.689Z,1000.43
2023-12-03T07:39:02.532Z,1000.51
2023-12-03T07:44:33.757Z,1000.52
2023-12-03T07:50:05.242Z,1000.54
2023-12-03T07:55:36.632Z,1000.6
2023-12-03T08:01:08.179Z,1000.69
2023-12-03T08:06:40.467Z,1000.71
2023-12-03T08:12:12.480Z,1000.75
2023-12-03T08:17:43.640Z,1000.71
2023-12-03T08:23:15.120Z,1000.79
2023-12-03T08:28:46.689Z,1000.8
2023-12-03T08:34:18.473Z,1000.78
2023-12-03T08:39:50.258Z,1000.78
2023-12-03T08:45:22.157Z,1000.85
2023-12-03T08:50:53.957Z,1000.88
2023-12-03T08:56:25.464Z,1000.93
2023-12-03T09:01:56.919Z,1000.94
2023-12-03T09:07:28.203Z,1000.95
2023-12-03T09:13:00.005Z,1000.98
2023-12-03T09:18:31.819Z,1001.07
2023-12-03T09:24:03.697Z,1001.16
2023-12-03T09:29:34.913Z,1001.19
2023-12-03T09:35:06.619Z,1001.31
2023-12-03T09:40:38.071Z,1001.33
2023-12-03T09:46:09.749Z,1001.36
2023-12-03T09:51:41.251Z,1001.38
2023-12-03T09:57:12.666Z,1001.46
2023-12-03T10:02:47.039Z,1001.52
2023-12-03T10:08:18.604Z,1001.58
2023-12-03T10:13:50.242Z,1001.63
2023-12-03T10:19:22.007Z,1001.7
2023-12-03T10:24:54.211Z,1001.76
2023-12-03T10:30:26.071Z,1001.76
2023-12-03T10:35:58.141Z,1001.81
2023-12-03T10:41:29.708Z,1001.77
2023-12-03T10:47:00.859Z,1001.87
2023-12-03T10:52:32.331Z,1001.85
2023-12-03T10:58:04.142Z,1001.83
2023-12-03T11:03:35.931Z,1001.84
2023-12-03T11:09:07.698Z,1001.86
2023-12-03T11:14:39.078Z,1001.9
2023-12-03T11:20:10.977Z,1001.89
2023-12-03T11:25:42.865Z,1001.85
2023-12-03T11:31:14.209Z,1001.95
2023-12-03T11:36:45.977Z,1001.93
2023-12-03T11:42:17.768Z,1001.9
2023-12-03T11:47:49.698Z,1001.95
2023-12-03T11:53:21.449Z,1001.93
2023-12-03T11:58:52.861Z,1001.92
2023-12-03T12:04:24.780Z,1001.9
2023-12-03T12:09:56.967Z,1001.94
2023-12-03T12:15:29.495Z,1001.92
2023-12-03T12:21:01.249Z,1001.88
2023-12-03T12:26:32.284Z,1001.86
2023-12-03T12:32:03.458Z,1001.87
2023-12-03T12:37:41.714Z,1001.93
2023-12-03T12:43:14.255Z,1001.88
2023-12-03T12:48:46.096Z,1001.95
2023-12-03T12:54:18.073Z,1002.02
2023-12-03T12:59:49.599Z,1001.99
2023-12-03T13:05:20.961Z,1002.05
2023-12-03T13:10:52.501Z,1002.05
2023-12-03T13:16:24.132Z,1001.98
2023-12-03T13:21:56.358Z,1001.92
2023-12-03T13:27:28.067Z,1001.94
2023-12-03T13:33:00.697Z,1001.96
2023-12-03T13:38:32.623Z,1001.98
2023-12-03T13:44:04.425Z,1002.02
2023-12-03T13:49:36.506Z,1002.02
2023-12-03T13:55:08.204Z,1002.06
2023-12-03T14:00:39.998Z,1002.11
2023-12-03T14:06:11.637Z,1002.02
2023-12-03T14:11:43.316Z,1002.03
2023-12-03T14:17:14.997Z,1002.02
2023-12-03T14:22:46.492Z,1002.05
2023-12-03T14:28:17.869Z,1001.97
2023-12-03T14:33:49.693Z,1001.99
2023-12-03T14:39:21.716Z,1002.08
2023-12-03T14:44:52.931Z,1002.16
2023-12-03T14:50:24.640Z,1002.14
2023-12-03T14:55:56.175Z,1002.19
2023-12-03T15:01:27.578Z,1002.27
2023-12-03T15:06:59.480Z,1002.27
2023-12-03T15:12:31.565Z,1002.32
2023-12-03T15:18:03.723Z,1002.38
2023-12-03T15:23:35.432Z,1002.45
2023-12-03T15:29:06.729Z,1002.5
2023-12-03T15:34:38.500Z,1002.5
2023-12-03T15:40:10.335Z,1002.57
2023-12-03T15:45:41.952Z,1002.57
2023-12-03T15:51:13.297Z,1002.52
2023-12-03T15:56:44.982Z,1002.51
2023-12-03T16:02:16.820Z,1002.45
2023-12-03T16:07:48.321Z,1002.46
2023-12-03T16:13:20.109Z,1002.47
2023-12-03T16:18:52.139Z,1002.47
2023-12-03T16:24:24.887Z,1002.44
2023-12-03T16:29:56.369Z,1002.41
2023-12-03T16:35:28.090Z,1002.44
2023-12-03T16:41:00.428Z,1002.57
2023-12-03T16:46:32.355Z,1002.58
2023-12-03T16:52:04.888Z,1002.59
2023-12-03T16:57:36.653Z,1002.63
2023-12-03T17:03:08.541Z,1002.68
2023-12-03T17:08:40.208Z,1002.58
2023-12-03T17:14:11.737Z,1002.62
2023-12-03T17:19:43.671Z,1002.61
2023-12-03T17:25:15.662Z,1002.53
2023-12-03T17:30:47.323Z,1002.54
2023-12-03T17:36:19.079Z,1002.55
2023-12-03T17:41:50.421Z,1002.46
2023-12-03T17:47:22.021Z,1002.47
2023-12-03T17:52:53.289Z,1002.43
2023-12-03T17:58:25.308Z,1002.54
2023-12-03T18:03:57.258Z,1002.48
2023-12-03T18:09:29.660Z,1002.52
2023-12-03T18:15:02.542Z,1002.44
2023-12-03T18:20:34.563Z,1002.4
2023-12-03T18:26:06.015Z,1002.47
2023-12-03T18:31:37.314Z,1002.42
2023-12-03T18:37:08.753Z,1002.37
2023-12-03T18:42:40.565Z,1002.19
2023-12-03T18:48:12.528Z,1002.19
2023-12-03T18:53:44.317Z,1002.07
2023-12-03T18:59:15.676Z,1002.08
2023-12-03T19:04:47.248Z,1002.01
2023-12-03T19:10:18.854Z,1002.05
2023-12-03T19:15:50.765Z,1002
2023-12-03T19:21:22.429Z,1001.99
2023-12-03T19:26:54.050Z,1001.96
2023-12-03T19:32:27.512Z,1001.94
2023-12-03T19:37:58.933Z,1001.94
2023-12-03T19:43:30.605Z,1001.93
2023-12-03T19:49:03.117Z,1001.86
2023-12-03T19:54:35.948Z,1001.91
2023-12-03T20:00:07.857Z,1001.86
2023-12-03T20:05:39.801Z,1001.77
2023-12-03T20:11:11.799Z,1001.74
2023-12-03T20:16:43.514Z,1001.59
2023-12-03T20:22:15.041Z,1001.53
2023-12-03T20:27:46.328Z,1001.6
2023-12-03T20:33:17.887Z,1001.61
2023-12-03T20:38:49.669Z,1001.57
2023-12-03T20:44:21.136Z,1001.55
2023-12-03T20:49:52.720Z,1001.42
2023-12-03T20:55:23.774Z,1001.39
2023-12-03T21:00:56.350Z,1001.34
2023-12-03T21:06:28.174Z,1001.27
2023-12-03T21:11:59.732Z,1001.27
2023-12-03T21:17:31.044Z,1001.24
2023-12-03T21:23:03.380Z,1001.14
2023-12-03T21:28:35.046Z,1000.98
2023-12-03T21:34:06.860Z,1000.85
2023-12-03T21:39:39.032Z,1000.86
2023-12-03T21:45:10.691Z,1000.88
2023-12-03T21:50:42.028Z,1000.88
2023-12-03T21:56:13.547Z,1000.89
2023-12-03T22:01:45.255Z,1000.88
2023-12-03T22:07:17.039Z,1000.95
2023-12-03T22:12:49.297Z,1000.89
2023-12-03T22:18:20.987Z,1000.81
2023-12-03T22:23:53.549Z,1000.8
2023-12-03T22:29:50.328Z,1000.76
2023-12-03T22:35:44.154Z,1000.62
2023-12-03T22:41:15.566Z,1000.49
2023-12-03T22:46:46.798Z,1000.46
2023-12-03T22:52:18.249Z,1000.45
2023-12-03T22:57:49.600Z,1000.43
2023-12-03T23:03:21.201Z,1000.32
2023-12-03T23:08:52.975Z,1000.28
2023-12-03T23:14:25.463Z,1000.21
2023-12-03T23:19:57.084Z,1000.16
2023-12-03T23:25:28.648Z,1000.11
2023-12-03T23:31:06.213Z,1000.13
2023-12-03T23:36:38.100Z,1000.17
2023-12-03T23:42:09.718Z,1000.2
2023-12-03T23:47:41.606Z,1000.16
2023-12-03T23:53:13.613Z,1000.16
2023-12-03T23:58:44.973Z,1000.15
